sensor_id;sensor_type;location;lat;lon;timestamp;P1;durP1;ratioP1;P2;durP2;ratioP2
22121;SDS011;11227;53.046;10.512;2022-12-26T00:01:54;41.88;;;22.23;;
22121;SDS011;11227;53.046;10.512;2022-12-26T00:05:56;40.38;;;21.40;;
22121;SDS011;11227;53.046;10.512;2022-12-26T00:09:58;42.38;;;21.90;;
22121;SDS011;11227;53.046;10.512;2022-12-26T00:14:01;41.30;;;20.60;;
22121;SDS011;11227;53.046;10.512;2022-12-26T00:18:07;37.63;;;19.90;;
22121;SDS011;11227;53.046;10.512;2022-12-26T00:22:09;41.60;;;21.67;;
22121;SDS011;11227;53.046;10.512;2022-12-26T00:26:12;39.00;;;20.75;;
22121;SDS011;11227;53.046;10.512;2022-12-26T00:30:18;38.83;;;20.63;;
22121;SDS011;11227;53.046;10.512;2022-12-26T00:34:20;37.45;;;19.83;;
22121;SDS011;11227;53.046;10.512;2022-12-26T00:38:22;35.17;;;19.88;;
22121;SDS011;11227;53.046;10.512;2022-12-26T00:42:23;33.17;;;18.80;;
22121;SDS011;11227;53.046;10.512;2022-12-26T00:46:26;35.92;;;18.95;;
22121;SDS011;11227;53.046;10.512;2022-12-26T00:50:28;36.85;;;19.27;;
22121;SDS011;11227;53.046;10.512;2022-12-26T00:54:35;39.78;;;20.38;;
22121;SDS011;11227;53.046;10.512;2022-12-26T00:58:36;32.25;;;19.08;;
22121;SDS011;11227;53.046;10.512;2022-12-26T01:02:38;31.48;;;17.95;;
22121;SDS011;11227;53.046;10.512;2022-12-26T01:06:41;33.05;;;18.95;;
22121;SDS011;11227;53.046;10.512;2022-12-26T01:10:43;33.75;;;17.90;;
22121;SDS011;11227;53.046;10.512;2022-12-26T01:14:46;34.22;;;17.85;;
22121;SDS011;11227;53.046;10.512;2022-12-26T01:18:47;36.20;;;17.40;;
22121;SDS011;11227;53.046;10.512;2022-12-26T01:22:49;30.05;;;17.08;;
22121;SDS011;11227;53.046;10.512;2022-12-26T01:26:50;37.00;;;17.95;;
22121;SDS011;11227;53.046;10.512;2022-12-26T01:30:53;32.95;;;17.65;;
22121;SDS011;11227;53.046;10.512;2022-12-26T01:34:55;34.53;;;17.67;;
22121;SDS011;11227;53.046;10.512;2022-12-26T01:38:57;30.55;;;15.80;;
22121;SDS011;11227;53.046;10.512;2022-12-26T01:42:58;30.20;;;16.80;;
22121;SDS011;11227;53.046;10.512;2022-12-26T01:47:00;32.08;;;16.80;;
22121;SDS011;11227;53.046;10.512;2022-12-26T01:51:02;31.67;;;17.25;;
22121;SDS011;11227;53.046;10.512;2022-12-26T01:55:07;30.60;;;16.05;;
22121;SDS011;11227;53.046;10.512;2022-12-26T01:59:13;29.67;;;15.77;;
22121;SDS011;11227;53.046;10.512;2022-12-26T02:03:18;30.75;;;16.60;;
22121;SDS011;11227;53.046;10.512;2022-12-26T02:07:41;30.98;;;15.90;;
22121;SDS011;11227;53.046;10.512;2022-12-26T02:12:00;29.08;;;16.45;;
22121;SDS011;11227;53.046;10.512;2022-12-26T02:16:27;31.95;;;14.73;;
22121;SDS011;11227;53.046;10.512;2022-12-26T02:20:32;25.15;;;15.30;;
22121;SDS011;11227;53.046;10.512;2022-12-26T02:29:14;29.10;;;15.25;;
22121;SDS011;11227;53.046;10.512;2022-12-26T02:38:10;26.88;;;14.57;;
22121;SDS011;11227;53.046;10.512;2022-12-26T02:42:20;26.58;;;14.75;;
22121;SDS011;11227;53.046;10.512;2022-12-26T02:46:50;25.25;;;13.75;;
22121;SDS011;11227;53.046;10.512;2022-12-26T02:51:07;21.75;;;13.02;;
22121;SDS011;11227;53.046;10.512;2022-12-26T02:55:52;26.63;;;13.82;;
22121;SDS011;11227;53.046;10.512;2022-12-26T03:00:16;22.38;;;13.55;;
22121;SDS011;11227;53.046;10.512;2022-12-26T03:04:39;23.83;;;13.07;;
22121;SDS011;11227;53.046;10.512;2022-12-26T03:09:02;22.73;;;12.93;;
22121;SDS011;11227;53.046;10.512;2022-12-26T03:13:27;21.67;;;12.75;;
22121;SDS011;11227;53.046;10.512;2022-12-26T03:17:43;21.38;;;12.20;;
22121;SDS011;11227;53.046;10.512;2022-12-26T03:21:50;23.60;;;13.40;;
22121;SDS011;11227;53.046;10.512;2022-12-26T03:26:00;20.38;;;12.00;;
22121;SDS011;11227;53.046;10.512;2022-12-26T03:30:24;25.83;;;12.55;;
22121;SDS011;11227;53.046;10.512;2022-12-26T03:34:45;21.75;;;11.80;;
22121;SDS011;11227;53.046;10.512;2022-12-26T03:43:57;19.70;;;11.05;;
22121;SDS011;11227;53.046;10.512;2022-12-26T03:49:03;21.25;;;11.27;;
22121;SDS011;11227;53.046;10.512;2022-12-26T04:02:40;19.73;;;11.02;;
22121;SDS011;11227;53.046;10.512;2022-12-26T04:07:11;20.42;;;11.75;;
22121;SDS011;11227;53.046;10.512;2022-12-26T04:11:56;17.15;;;10.18;;
22121;SDS011;11227;53.046;10.512;2022-12-26T04:16:19;18.15;;;10.38;;
22121;SDS011;11227;53.046;10.512;2022-12-26T04:21:04;16.67;;;9.82;;
22121;SDS011;11227;53.046;10.512;2022-12-26T04:25:55;19.33;;;10.98;;
22121;SDS011;11227;53.046;10.512;2022-12-26T04:30:20;19.88;;;10.68;;
22121;SDS011;11227;53.046;10.512;2022-12-26T04:34:45;20.38;;;10.43;;
22121;SDS011;11227;53.046;10.512;2022-12-26T04:39:15;17.70;;;9.32;;
22121;SDS011;11227;53.046;10.512;2022-12-26T04:43:40;17.70;;;9.77;;
22121;SDS011;11227;53.046;10.512;2022-12-26T04:48:01;16.73;;;9.40;;
22121;SDS011;11227;53.046;10.512;2022-12-26T04:52:21;14.07;;;9.20;;
22121;SDS011;11227;53.046;10.512;2022-12-26T04:56:23;15.82;;;9.70;;
22121;SDS011;11227;53.046;10.512;2022-12-26T05:00:26;16.33;;;9.20;;
22121;SDS011;11227;53.046;10.512;2022-12-26T05:04:28;15.38;;;8.90;;
22121;SDS011;11227;53.046;10.512;2022-12-26T05:08:49;17.17;;;9.85;;
22121;SDS011;11227;53.046;10.512;2022-12-26T05:13:09;17.65;;;9.32;;
22121;SDS011;11227;53.046;10.512;2022-12-26T05:17:11;15.50;;;8.98;;
22121;SDS011;11227;53.046;10.512;2022-12-26T05:21:32;14.75;;;9.02;;
22121;SDS011;11227;53.046;10.512;2022-12-26T05:25:53;15.20;;;8.43;;
22121;SDS011;11227;53.046;10.512;2022-12-26T05:30:14;15.07;;;9.05;;
22121;SDS011;11227;53.046;10.512;2022-12-26T05:34:15;13.75;;;7.95;;
22121;SDS011;11227;53.046;10.512;2022-12-26T05:38:20;15.98;;;8.82;;
22121;SDS011;11227;53.046;10.512;2022-12-26T05:42:22;13.20;;;7.93;;
22121;SDS011;11227;53.046;10.512;2022-12-26T05:46:24;12.27;;;7.25;;
22121;SDS011;11227;53.046;10.512;2022-12-26T05:50:25;13.65;;;7.90;;
22121;SDS011;11227;53.046;10.512;2022-12-26T05:54:27;15.48;;;7.60;;
22121;SDS011;11227;53.046;10.512;2022-12-26T05:58:29;13.15;;;6.82;;
22121;SDS011;11227;53.046;10.512;2022-12-26T06:02:31;12.93;;;8.15;;
22121;SDS011;11227;53.046;10.512;2022-12-26T06:06:33;12.20;;;7.07;;
22121;SDS011;11227;53.046;10.512;2022-12-26T06:10:35;10.80;;;7.43;;
22121;SDS011;11227;53.046;10.512;2022-12-26T06:14:37;13.85;;;7.97;;
22121;SDS011;11227;53.046;10.512;2022-12-26T06:18:38;12.40;;;7.55;;
22121;SDS011;11227;53.046;10.512;2022-12-26T06:22:40;12.35;;;7.55;;
22121;SDS011;11227;53.046;10.512;2022-12-26T06:26:42;12.40;;;7.57;;
22121;SDS011;11227;53.046;10.512;2022-12-26T06:30:43;13.32;;;6.90;;
22121;SDS011;11227;53.046;10.512;2022-12-26T06:34:46;11.32;;;7.00;;
22121;SDS011;11227;53.046;10.512;2022-12-26T06:38:48;10.20;;;6.43;;
22121;SDS011;11227;53.046;10.512;2022-12-26T06:42:50;10.63;;;6.72;;
22121;SDS011;11227;53.046;10.512;2022-12-26T06:46:51;11.15;;;6.88;;
22121;SDS011;11227;53.046;10.512;2022-12-26T06:50:53;10.38;;;6.53;;
22121;SDS011;11227;53.046;10.512;2022-12-26T06:54:55;11.98;;;7.35;;
22121;SDS011;11227;53.046;10.512;2022-12-26T06:58:59;10.63;;;6.63;;
22121;SDS011;11227;53.046;10.512;2022-12-26T07:03:02;12.35;;;6.38;;
22121;SDS011;11227;53.046;10.512;2022-12-26T07:07:04;9.38;;;6.05;;
22121;SDS011;11227;53.046;10.512;2022-12-26T07:11:11;10.82;;;6.45;;
22121;SDS011;11227;53.046;10.512;2022-12-26T07:15:14;9.38;;;5.90;;
22121;SDS011;11227;53.046;10.512;2022-12-26T07:19:16;10.05;;;6.28;;
22121;SDS011;11227;53.046;10.512;2022-12-26T07:23:17;9.57;;;5.85;;
22121;SDS011;11227;53.046;10.512;2022-12-26T07:27:19;8.63;;;5.70;;
22121;SDS011;11227;53.046;10.512;2022-12-26T07:31:21;9.77;;;5.72;;
22121;SDS011;11227;53.046;10.512;2022-12-26T07:35:23;10.20;;;6.38;;
22121;SDS011;11227;53.046;10.512;2022-12-26T07:39:25;10.38;;;5.93;;
22121;SDS011;11227;53.046;10.512;2022-12-26T07:43:27;10.50;;;6.43;;
22121;SDS011;11227;53.046;10.512;2022-12-26T07:47:28;9.07;;;5.80;;
22121;SDS011;11227;53.046;10.512;2022-12-26T07:51:30;8.32;;;5.82;;
22121;SDS011;11227;53.046;10.512;2022-12-26T07:55:31;8.27;;;5.20;;
22121;SDS011;11227;53.046;10.512;2022-12-26T07:59:33;9.25;;;5.45;;
22121;SDS011;11227;53.046;10.512;2022-12-26T08:03:36;8.63;;;5.45;;
22121;SDS011;11227;53.046;10.512;2022-12-26T08:07:37;9.02;;;6.30;;
22121;SDS011;11227;53.046;10.512;2022-12-26T08:11:39;10.13;;;5.38;;
22121;SDS011;11227;53.046;10.512;2022-12-26T08:15:41;7.65;;;5.28;;
22121;SDS011;11227;53.046;10.512;2022-12-26T08:19:43;8.77;;;5.10;;
22121;SDS011;11227;53.046;10.512;2022-12-26T08:23:44;7.50;;;5.20;;
22121;SDS011;11227;53.046;10.512;2022-12-26T08:27:48;9.18;;;5.30;;
22121;SDS011;11227;53.046;10.512;2022-12-26T08:31:49;7.00;;;4.47;;
22121;SDS011;11227;53.046;10.512;2022-12-26T08:35:51;7.80;;;4.90;;
22121;SDS011;11227;53.046;10.512;2022-12-26T08:39:53;7.65;;;4.40;;
22121;SDS011;11227;53.046;10.512;2022-12-26T08:43:54;7.55;;;4.95;;
22121;SDS011;11227;53.046;10.512;2022-12-26T08:48:16;7.32;;;4.68;;
22121;SDS011;11227;53.046;10.512;2022-12-26T08:52:18;7.32;;;4.68;;
22121;SDS011;11227;53.046;10.512;2022-12-26T08:56:21;7.50;;;4.80;;
22121;SDS011;11227;53.046;10.512;2022-12-26T09:00:24;7.03;;;4.38;;
22121;SDS011;11227;53.046;10.512;2022-12-26T09:04:26;7.10;;;4.30;;
22121;SDS011;11227;53.046;10.512;2022-12-26T09:08:28;7.22;;;4.95;;
22121;SDS011;11227;53.046;10.512;2022-12-26T09:12:30;6.75;;;4.18;;
22121;SDS011;11227;53.046;10.512;2022-12-26T09:16:33;5.75;;;3.78;;
22121;SDS011;11227;53.046;10.512;2022-12-26T09:20:45;7.25;;;4.30;;
22121;SDS011;11227;53.046;10.512;2022-12-26T09:24:47;6.43;;;4.20;;
22121;SDS011;11227;53.046;10.512;2022-12-26T09:28:49;6.43;;;4.15;;
22121;SDS011;11227;53.046;10.512;2022-12-26T09:32:52;7.45;;;4.30;;
22121;SDS011;11227;53.046;10.512;2022-12-26T09:36:54;6.82;;;4.38;;
22121;SDS011;11227;53.046;10.512;2022-12-26T09:45:18;7.10;;;4.10;;
22121;SDS011;11227;53.046;10.512;2022-12-26T09:49:39;5.07;;;3.53;;
22121;SDS011;11227;53.046;10.512;2022-12-26T09:53:56;6.07;;;4.07;;
22121;SDS011;11227;53.046;10.512;2022-12-26T10:02:27;5.28;;;3.78;;
22121;SDS011;11227;53.046;10.512;2022-12-26T10:06:34;5.65;;;4.15;;
22121;SDS011;11227;53.046;10.512;2022-12-26T10:10:42;6.40;;;3.45;;
22121;SDS011;11227;53.046;10.512;2022-12-26T10:19:47;4.75;;;3.35;;
22121;SDS011;11227;53.046;10.512;2022-12-26T10:23:53;5.43;;;3.67;;
22121;SDS011;11227;53.046;10.512;2022-12-26T10:28:01;5.30;;;3.72;;
22121;SDS011;11227;53.046;10.512;2022-12-26T10:32:13;5.00;;;3.35;;
22121;SDS011;11227;53.046;10.512;2022-12-26T10:36:39;4.63;;;2.90;;
22121;SDS011;11227;53.046;10.512;2022-12-26T10:40:46;9.25;;;3.58;;
22121;SDS011;11227;53.046;10.512;2022-12-26T10:44:50;14.65;;;4.10;;
22121;SDS011;11227;53.046;10.512;2022-12-26T10:48:52;16.90;;;4.20;;
22121;SDS011;11227;53.046;10.512;2022-12-26T10:52:54;764.90;;;58.40;;
22121;SDS011;11227;53.046;10.512;2022-12-26T10:56:58;178.80;;;15.02;;
22121;SDS011;11227;53.046;10.512;2022-12-26T11:05:37;301.55;;;21.13;;
22121;SDS011;11227;53.046;10.512;2022-12-26T11:10:04;237.90;;;17.85;;
22121;SDS011;11227;53.046;10.512;2022-12-26T11:18:45;162.63;;;15.27;;
22121;SDS011;11227;53.046;10.512;2022-12-26T11:22:48;181.80;;;16.17;;
22121;SDS011;11227;53.046;10.512;2022-12-26T11:26:50;129.43;;;12.18;;
22121;SDS011;11227;53.046;10.512;2022-12-26T11:30:52;133.95;;;12.75;;
22121;SDS011;11227;53.046;10.512;2022-12-26T11:34:54;123.43;;;10.77;;
22121;SDS011;11227;53.046;10.512;2022-12-26T11:38:57;93.28;;;11.88;;
22121;SDS011;11227;53.046;10.512;2022-12-26T11:43:21;90.70;;;8.77;;
22121;SDS011;11227;53.046;10.512;2022-12-26T11:47:26;74.05;;;10.38;;
22121;SDS011;11227;53.046;10.512;2022-12-26T11:51:33;62.97;;;7.05;;
22121;SDS011;11227;53.046;10.512;2022-12-26T11:55:42;64.50;;;7.32;;
22121;SDS011;11227;53.046;10.512;2022-12-26T11:59:43;46.08;;;5.72;;
22121;SDS011;11227;53.046;10.512;2022-12-26T12:03:47;51.67;;;6.32;;
22121;SDS011;11227;53.046;10.512;2022-12-26T12:16:32;31.60;;;5.43;;
22121;SDS011;11227;53.046;10.512;2022-12-26T12:25:32;30.67;;;4.90;;
22121;SDS011;11227;53.046;10.512;2022-12-26T12:34:06;25.80;;;4.93;;
22121;SDS011;11227;53.046;10.512;2022-12-26T12:38:35;22.77;;;3.97;;
22121;SDS011;11227;53.046;10.512;2022-12-26T12:43:03;19.05;;;4.03;;
22121;SDS011;11227;53.046;10.512;2022-12-26T12:48:07;17.75;;;4.07;;
22121;SDS011;11227;53.046;10.512;2022-12-26T12:52:01;20.08;;;3.35;;
22121;SDS011;11227;53.046;10.512;2022-12-26T12:56:19;14.95;;;3.50;;
22121;SDS011;11227;53.046;10.512;2022-12-26T13:01:00;19.75;;;4.10;;
22121;SDS011;11227;53.046;10.512;2022-12-26T13:05:17;15.05;;;4.07;;
22121;SDS011;11227;53.046;10.512;2022-12-26T13:09:24;10.60;;;3.28;;
22121;SDS011;11227;53.046;10.512;2022-12-26T13:13:35;17.17;;;2.88;;
22121;SDS011;11227;53.046;10.512;2022-12-26T13:17:44;13.20;;;3.67;;
22121;SDS011;11227;53.046;10.512;2022-12-26T13:22:00;11.10;;;3.00;;
22121;SDS011;11227;53.046;10.512;2022-12-26T13:26:05;13.80;;;2.80;;
22121;SDS011;11227;53.046;10.512;2022-12-26T13:30:15;10.52;;;2.40;;
22121;SDS011;11227;53.046;10.512;2022-12-26T13:34:18;7.63;;;2.75;;
22121;SDS011;11227;53.046;10.512;2022-12-26T13:38:21;7.18;;;2.20;;
22121;SDS011;11227;53.046;10.512;2022-12-26T13:42:28;10.77;;;2.03;;
22121;SDS011;11227;53.046;10.512;2022-12-26T13:59:43;3.90;;;1.80;;
22121;SDS011;11227;53.046;10.512;2022-12-26T14:03:46;4.05;;;1.90;;
22121;SDS011;11227;53.046;10.512;2022-12-26T14:07:59;4.80;;;1.58;;
22121;SDS011;11227;53.046;10.512;2022-12-26T14:12:15;8.82;;;2.33;;
22121;SDS011;11227;53.046;10.512;2022-12-26T14:16:42;9.18;;;1.50;;
22121;SDS011;11227;53.046;10.512;2022-12-26T14:25:46;2.75;;;1.48;;
22121;SDS011;11227;53.046;10.512;2022-12-26T14:30:17;5.50;;;1.63;;
22121;SDS011;11227;53.046;10.512;2022-12-26T14:38:54;1.42;;;1.10;;
22121;SDS011;11227;53.046;10.512;2022-12-26T14:51:46;4.10;;;1.42;;
22121;SDS011;11227;53.046;10.512;2022-12-26T14:55:49;4.47;;;1.40;;
22121;SDS011;11227;53.046;10.512;2022-12-26T15:04:21;1.92;;;1.25;;
22121;SDS011;11227;53.046;10.512;2022-12-26T15:08:47;2.47;;;1.08;;
22121;SDS011;11227;53.046;10.512;2022-12-26T15:17:41;2.97;;;1.02;;
22121;SDS011;11227;53.046;10.512;2022-12-26T15:31:09;1.15;;;0.80;;
22121;SDS011;11227;53.046;10.512;2022-12-26T15:35:29;1.98;;;1.02;;
22121;SDS011;11227;53.046;10.512;2022-12-26T15:39:47;2.70;;;1.10;;
22121;SDS011;11227;53.046;10.512;2022-12-26T15:44:02;1.67;;;1.05;;
22121;SDS011;11227;53.046;10.512;2022-12-26T15:53:12;4.05;;;0.70;;
22121;SDS011;11227;53.046;10.512;2022-12-26T15:57:32;1.67;;;0.80;;
22121;SDS011;11227;53.046;10.512;2022-12-26T16:01:58;1.20;;;0.88;;
22121;SDS011;11227;53.046;10.512;2022-12-26T16:10:33;1.42;;;0.90;;
22121;SDS011;11227;53.046;10.512;2022-12-26T16:14:36;1.23;;;1.00;;
22121;SDS011;11227;53.046;10.512;2022-12-26T16:18:39;0.95;;;0.50;;
22121;SDS011;11227;53.046;10.512;2022-12-26T16:22:41;1.25;;;0.95;;
22121;SDS011;11227;53.046;10.512;2022-12-26T16:26:43;1.02;;;0.70;;
22121;SDS011;11227;53.046;10.512;2022-12-26T16:30:48;1.52;;;0.70;;
22121;SDS011;11227;53.046;10.512;2022-12-26T16:34:50;1.55;;;0.82;;
22121;SDS011;11227;53.046;10.512;2022-12-26T16:38:52;0.85;;;0.70;;
22121;SDS011;11227;53.046;10.512;2022-12-26T16:42:56;0.98;;;0.63;;
22121;SDS011;11227;53.046;10.512;2022-12-26T16:47:18;1.35;;;0.70;;
22121;SDS011;11227;53.046;10.512;2022-12-26T16:55:43;0.98;;;0.70;;
22121;SDS011;11227;53.046;10.512;2022-12-26T16:59:53;0.98;;;0.70;;
22121;SDS011;11227;53.046;10.512;2022-12-26T17:03:59;1.52;;;0.77;;
22121;SDS011;11227;53.046;10.512;2022-12-26T17:08:04;1.95;;;0.90;;
22121;SDS011;11227;53.046;10.512;2022-12-26T17:12:06;1.95;;;0.70;;
22121;SDS011;11227;53.046;10.512;2022-12-26T17:16:17;0.95;;;0.57;;
22121;SDS011;11227;53.046;10.512;2022-12-26T17:24:25;2.97;;;0.80;;
22121;SDS011;11227;53.046;10.512;2022-12-26T17:28:27;1.73;;;0.82;;
22121;SDS011;11227;53.046;10.512;2022-12-26T17:32:33;0.57;;;0.55;;
22121;SDS011;11227;53.046;10.512;2022-12-26T17:36:46;3.03;;;1.15;;
22121;SDS011;11227;53.046;10.512;2022-12-26T17:41:07;1.30;;;0.60;;
22121;SDS011;11227;53.046;10.512;2022-12-26T17:45:17;2.10;;;0.60;;
22121;SDS011;11227;53.046;10.512;2022-12-26T17:49:20;1.75;;;0.63;;
22121;SDS011;11227;53.046;10.512;2022-12-26T17:53:26;0.80;;;0.70;;
22121;SDS011;11227;53.046;10.512;2022-12-26T17:57:32;1.48;;;0.60;;
22121;SDS011;11227;53.046;10.512;2022-12-26T18:01:33;2.78;;;0.80;;
22121;SDS011;11227;53.046;10.512;2022-12-26T18:05:36;0.55;;;0.43;;
22121;SDS011;11227;53.046;10.512;2022-12-26T18:09:38;0.57;;;0.50;;
22121;SDS011;11227;53.046;10.512;2022-12-26T18:13:40;1.15;;;0.50;;
22121;SDS011;11227;53.046;10.512;2022-12-26T18:17:43;1.45;;;0.60;;
22121;SDS011;11227;53.046;10.512;2022-12-26T18:21:45;1.23;;;0.60;;
22121;SDS011;11227;53.046;10.512;2022-12-26T18:25:47;0.60;;;0.60;;
22121;SDS011;11227;53.046;10.512;2022-12-26T18:29:54;1.85;;;0.50;;
22121;SDS011;11227;53.046;10.512;2022-12-26T18:33:56;0.65;;;0.55;;
22121;SDS011;11227;53.046;10.512;2022-12-26T18:37:58;0.57;;;0.50;;
22121;SDS011;11227;53.046;10.512;2022-12-26T18:41:59;1.38;;;0.70;;
22121;SDS011;11227;53.046;10.512;2022-12-26T18:46:01;1.13;;;0.50;;
22121;SDS011;11227;53.046;10.512;2022-12-26T18:50:07;1.48;;;0.40;;
22121;SDS011;11227;53.046;10.512;2022-12-26T18:54:11;0.63;;;0.40;;
22121;SDS011;11227;53.046;10.512;2022-12-26T18:58:12;0.85;;;0.40;;
22121;SDS011;11227;53.046;10.512;2022-12-26T19:02:17;0.77;;;0.30;;
22121;SDS011;11227;53.046;10.512;2022-12-26T19:06:21;2.55;;;0.60;;
22121;SDS011;11227;53.046;10.512;2022-12-26T19:10:26;2.30;;;0.40;;
22121;SDS011;11227;53.046;10.512;2022-12-26T19:14:29;1.35;;;0.60;;
22121;SDS011;11227;53.046;10.512;2022-12-26T19:18:31;1.92;;;0.60;;
22121;SDS011;11227;53.046;10.512;2022-12-26T19:22:33;0.43;;;0.43;;
22121;SDS011;11227;53.046;10.512;2022-12-26T19:26:34;0.75;;;0.50;;
22121;SDS011;11227;53.046;10.512;2022-12-26T19:30:36;1.40;;;0.40;;
22121;SDS011;11227;53.046;10.512;2022-12-26T19:34:39;3.85;;;0.73;;
22121;SDS011;11227;53.046;10.512;2022-12-26T19:38:41;2.20;;;0.43;;
22121;SDS011;11227;53.046;10.512;2022-12-26T19:42:42;0.63;;;0.40;;
22121;SDS011;11227;53.046;10.512;2022-12-26T19:46:44;0.80;;;0.50;;
22121;SDS011;11227;53.046;10.512;2022-12-26T19:50:47;1.10;;;0.50;;
22121;SDS011;11227;53.046;10.512;2022-12-26T19:54:49;0.85;;;0.40;;
22121;SDS011;11227;53.046;10.512;2022-12-26T19:58:51;1.48;;;0.50;;
22121;SDS011;11227;53.046;10.512;2022-12-26T20:06:58;1.20;;;0.45;;
22121;SDS011;11227;53.046;10.512;2022-12-26T20:11:04;1.20;;;0.45;;
22121;SDS011;11227;53.046;10.512;2022-12-26T20:15:17;0.85;;;0.40;;
22121;SDS011;11227;53.046;10.512;2022-12-26T20:19:19;0.32;;;0.30;;
22121;SDS011;11227;53.046;10.512;2022-12-26T20:23:21;0.95;;;0.55;;
22121;SDS011;11227;53.046;10.512;2022-12-26T20:27:23;1.30;;;0.60;;
22121;SDS011;11227;53.046;10.512;2022-12-26T20:31:25;1.25;;;0.45;;
22121;SDS011;11227;53.046;10.512;2022-12-26T20:35:26;1.30;;;0.60;;
22121;SDS011;11227;53.046;10.512;2022-12-26T20:39:28;0.95;;;0.43;;
22121;SDS011;11227;53.046;10.512;2022-12-26T20:43:32;2.10;;;0.50;;
22121;SDS011;11227;53.046;10.512;2022-12-26T20:47:34;0.95;;;0.40;;
22121;SDS011;11227;53.046;10.512;2022-12-26T20:51:37;2.85;;;0.60;;
22121;SDS011;11227;53.046;10.512;2022-12-26T20:55:40;2.55;;;0.75;;
22121;SDS011;11227;53.046;10.512;2022-12-26T20:59:42;1.23;;;0.80;;
22121;SDS011;11227;53.046;10.512;2022-12-26T21:03:44;2.22;;;0.50;;
22121;SDS011;11227;53.046;10.512;2022-12-26T21:07:46;0.60;;;0.30;;
22121;SDS011;11227;53.046;10.512;2022-12-26T21:11:48;1.98;;;0.82;;
22121;SDS011;11227;53.046;10.512;2022-12-26T21:15:49;1.27;;;0.50;;
22121;SDS011;11227;53.046;10.512;2022-12-26T21:19:51;1.40;;;0.65;;
22121;SDS011;11227;53.046;10.512;2022-12-26T21:23:54;0.95;;;0.50;;
22121;SDS011;11227;53.046;10.512;2022-12-26T21:28:07;1.85;;;0.80;;
22121;SDS011;11227;53.046;10.512;2022-12-26T21:32:09;0.75;;;0.50;;
22121;SDS011;11227;53.046;10.512;2022-12-26T21:36:11;0.63;;;0.45;;
22121;SDS011;11227;53.046;10.512;2022-12-26T21:40:14;2.85;;;0.63;;
22121;SDS011;11227;53.046;10.512;2022-12-26T21:44:15;1.95;;;0.65;;
22121;SDS011;11227;53.046;10.512;2022-12-26T21:48:17;0.82;;;0.47;;
22121;SDS011;11227;53.046;10.512;2022-12-26T21:52:18;5.18;;;0.63;;
22121;SDS011;11227;53.046;10.512;2022-12-26T21:56:20;1.55;;;0.77;;
22121;SDS011;11227;53.046;10.512;2022-12-26T22:00:22;1.00;;;0.40;;
22121;SDS011;11227;53.046;10.512;2022-12-26T22:04:24;0.90;;;0.52;;
22121;SDS011;11227;53.046;10.512;2022-12-26T22:08:26;1.23;;;0.60;;
22121;SDS011;11227;53.046;10.512;2022-12-26T22:12:28;0.80;;;0.50;;
22121;SDS011;11227;53.046;10.512;2022-12-26T22:16:52;1.27;;;0.63;;
22121;SDS011;11227;53.046;10.512;2022-12-26T22:24:57;2.03;;;0.80;;
22121;SDS011;11227;53.046;10.512;2022-12-26T22:28:58;2.42;;;0.55;;
22121;SDS011;11227;53.046;10.512;2022-12-26T22:33:00;2.15;;;0.73;;
22121;SDS011;11227;53.046;10.512;2022-12-26T22:37:02;3.53;;;0.80;;
22121;SDS011;11227;53.046;10.512;2022-12-26T22:41:04;2.25;;;0.45;;
22121;SDS011;11227;53.046;10.512;2022-12-26T22:45:06;1.95;;;0.63;;
22121;SDS011;11227;53.046;10.512;2022-12-26T22:49:08;1.38;;;0.73;;
22121;SDS011;11227;53.046;10.512;2022-12-26T22:53:10;5.57;;;0.70;;
22121;SDS011;11227;53.046;10.512;2022-12-26T22:57:12;0.93;;;0.50;;
22121;SDS011;11227;53.046;10.512;2022-12-26T23:01:16;1.25;;;0.50;;
22121;SDS011;11227;53.046;10.512;2022-12-26T23:05:19;1.92;;;0.63;;
22121;SDS011;11227;53.046;10.512;2022-12-26T23:09:21;2.35;;;0.70;;
22121;SDS011;11227;53.046;10.512;2022-12-26T23:13:23;1.27;;;0.60;;
22121;SDS011;11227;53.046;10.512;2022-12-26T23:17:25;2.40;;;0.60;;
22121;SDS011;11227;53.046;10.512;2022-12-26T23:21:48;1.70;;;0.60;;
22121;SDS011;11227;53.046;10.512;2022-12-26T23:25:50;2.60;;;0.40;;
22121;SDS011;11227;53.046;10.512;2022-12-26T23:29:52;0.75;;;0.40;;
22121;SDS011;11227;53.046;10.512;2022-12-26T23:34:13;0.45;;;0.40;;
22121;SDS011;11227;53.046;10.512;2022-12-26T23:38:15;1.05;;;0.60;;
22121;SDS011;11227;53.046;10.512;2022-12-26T23:42:17;1.20;;;0.43;;
22121;SDS011;11227;53.046;10.512;2022-12-26T23:46:18;1.65;;;0.43;;
22121;SDS011;11227;53.046;10.512;2022-12-26T23:50:20;2.00;;;0.88;;
22121;SDS011;11227;53.046;10.512;2022-12-26T23:54:22;1.92;;;0.75;;
22121;SDS011;11227;53.046;10.512;2022-12-26T23:58:23;1.75;;;0.65;;
